Time;durP1;ratioP1;P1;durP2;ratioP2;P2;SDS_P1;SDS_P2;PMS_P1;PMS_P2;Temp;Humidity;BMP_temperature;BMP_pressure;BME280_temperature;BME280_humidity;BME280_pressure;Samples;Min_cycle;Max_cycle;Signal;HPM_P1;HPM_P2
2023/05/26 00:00:24;;;;;;;29.88;6.55;;;;;;;12.15;68.62;101805.81;5043986;28;20135;-59
2023/05/26 00:02:51;;;;;;;19.98;5.43;;;;;;;12.10;68.94;101807.81;5036656;28;20140;-61
2023/05/26 00:05:20;;;;;;;28.58;5.60;;;;;;;12.07;69.63;101807.97;5030503;28;20056;-60
2023/05/26 00:07:47;;;;;;;20.00;6.45;;;;;;;12.04;69.54;101805.47;5038506;28;20132;-62
2023/05/26 00:10:15;;;;;;;19.20;5.13;;;;;;;12.01;70.24;101804.75;5044264;28;20493;-60
2023/05/26 00:12:42;;;;;;;24.55;5.78;;;;;;;11.97;70.18;101803.19;5039588;28;20048;-61
2023/05/26 00:15:09;;;;;;;17.33;5.18;;;;;;;11.89;70.43;101807.03;5043511;28;20202;-60
2023/05/26 00:17:37;;;;;;;25.88;6.10;;;;;;;11.84;70.72;101811.69;5042278;28;20077;-60
2023/05/26 00:20:07;;;;;;;22.98;6.50;;;;;;;11.80;71.11;101811.84;5039253;28;20544;-61
2023/05/26 00:22:35;;;;;;;21.80;5.43;;;;;;;11.75;71.35;101808.53;5040982;28;20053;-59
2023/05/26 00:25:03;;;;;;;24.95;5.75;;;;;;;11.73;71.88;101807.75;5058372;28;20103;-60
2023/05/26 00:27:30;;;;;;;21.25;6.25;;;;;;;11.68;72.35;101809.75;5017797;28;20151;-62
2023/05/26 00:29:58;;;;;;;24.55;6.38;;;;;;;11.64;72.36;101801.13;5036823;28;20064;-58
2023/05/26 00:32:25;;;;;;;20.35;6.18;;;;;;;11.59;72.73;101809.22;5042159;28;20048;-61
2023/05/26 00:34:53;;;;;;;21.17;6.10;;;;;;;11.54;72.86;101802.44;5034264;28;20140;-62
2023/05/26 00:37:22;;;;;;;17.50;5.85;;;;;;;11.50;73.44;101806.16;5041040;28;20140;-59
2023/05/26 00:39:49;;;;;;;18.83;5.88;;;;;;;11.46;73.70;101801.94;5046736;28;20577;-59
2023/05/26 00:42:17;;;;;;;21.33;6.00;;;;;;;11.41;73.98;101807.41;5044507;28;20163;-60
2023/05/26 00:44:44;;;;;;;22.05;5.95;;;;;;;11.38;74.32;101812.81;5018201;28;20076;-62
2023/05/26 00:47:11;;;;;;;24.02;6.03;;;;;;;11.35;74.68;101810.31;5036439;28;20296;-59
2023/05/26 00:49:39;;;;;;;19.00;5.43;;;;;;;11.31;74.99;101812.22;5054800;28;20072;-61
2023/05/26 00:52:06;;;;;;;22.40;6.32;;;;;;;11.26;75.06;101814.22;5039868;28;20140;-62
2023/05/26 00:54:35;;;;;;;25.00;6.15;;;;;;;11.24;75.43;101815.19;5036068;28;20077;-61
2023/05/26 00:57:03;;;;;;;19.73;6.30;;;;;;;11.20;75.95;101822.34;5039779;28;20071;-62
2023/05/26 00:59:31;;;;;;;26.42;7.15;;;;;;;11.14;76.39;101820.84;5043683;28;20137;-61
2023/05/26 01:01:59;;;;;;;24.55;5.85;;;;;;;11.10;76.58;101815.75;5043566;28;20052;-62
2023/05/26 01:04:27;;;;;;;24.67;6.65;;;;;;;11.07;76.92;101811.47;5042236;28;20065;-61
2023/05/26 01:06:55;;;;;;;26.00;6.05;;;;;;;11.02;77.33;101809.94;5039647;28;20048;-61
2023/05/26 01:09:22;;;;;;;17.58;6.25;;;;;;;10.97;77.75;101807.50;5042920;28;20062;-59
2023/05/26 01:11:53;;;;;;;26.35;6.03;;;;;;;10.94;77.85;101805.00;5040305;28;20560;-62
2023/05/26 01:14:31;;;;;;;24.02;6.78;;;;;;;10.90;78.05;101808.69;5039534;28;20128;-60
2023/05/26 01:17:07;;;;;;;22.45;6.03;;;;;;;10.87;78.43;101801.78;5037562;28;20052;-60
2023/05/26 01:19:52;;;;;;;23.98;6.72;;;;;;;10.84;78.73;101795.75;5026368;28;20067;-62
2023/05/26 01:22:22;;;;;;;20.77;6.45;;;;;;;10.80;78.86;101800.28;5038486;28;20065;-59
2023/05/26 01:25:06;;;;;;;26.08;7.30;;;;;;;10.79;79.16;101803.84;5021681;28;20135;-62
2023/05/26 01:28:02;;;;;;;25.25;6.28;;;;;;;10.78;79.35;101801.28;5043640;28;20052;-60
2023/05/26 01:30:31;;;;;;;35.75;7.97;;;;;;;10.73;79.83;101803.25;5030991;28;20053;-59
2023/05/26 01:32:58;;;;;;;20.50;5.93;;;;;;;10.70;80.01;101800.75;5053485;28;20177;-60
2023/05/26 01:35:26;;;;;;;24.45;6.13;;;;;;;10.69;80.16;101806.94;5043845;28;20059;-59
2023/05/26 01:37:54;;;;;;;28.75;7.03;;;;;;;10.64;80.55;101807.97;5039093;28;20048;-59
2023/05/26 01:40:21;;;;;;;31.77;6.75;;;;;;;10.61;80.47;101805.47;5039176;28;20084;-61
2023/05/26 01:43:02;;;;;;;24.75;6.57;;;;;;;10.59;81.13;101814.34;5041387;28;20417;-62
2023/05/26 01:45:42;;;;;;;24.08;7.10;;;;;;;10.57;81.30;101817.03;5034401;28;20141;-59
2023/05/26 01:48:10;;;;;;;24.52;7.55;;;;;;;10.52;81.25;101812.88;5020253;28;20045;-62
2023/05/26 01:50:47;;;;;;;25.38;7.45;;;;;;;10.48;81.89;101809.50;5036588;28;20147;-62
2023/05/26 01:53:18;;;;;;;21.30;6.07;;;;;;;10.46;81.92;101806.09;5037756;28;20191;-58
2023/05/26 01:55:45;;;;;;;26.05;7.22;;;;;;;10.44;82.07;101813.16;5047449;22;20918;-53
2023/05/26 01:58:14;;;;;;;26.90;6.70;;;;;;;10.41;82.20;101813.31;5059166;28;20480;-56
2023/05/26 02:00:47;;;;;;;19.10;6.20;;;;;;;10.39;82.08;101815.13;5054745;28;20067;-53
2023/05/26 02:03:15;;;;;;;19.75;5.90;;;;;;;10.36;82.45;101808.22;5049942;28;20083;-54
2023/05/26 02:05:43;;;;;;;22.38;6.07;;;;;;;10.34;82.32;101811.81;5054762;28;20125;-56
2023/05/26 02:08:11;;;;;;;24.55;8.27;;;;;;;10.31;82.35;101809.31;5053473;28;20055;-52
2023/05/26 02:10:39;;;;;;;19.15;6.50;;;;;;;10.26;82.60;101809.47;5045211;28;20068;-56
2023/05/26 02:13:06;;;;;;;23.15;6.95;;;;;;;10.24;82.42;101810.44;5048696;28;20766;-56
2023/05/26 02:15:34;;;;;;;37.33;7.45;;;;;;;10.22;82.77;101815.78;5048856;28;20179;-56
2023/05/26 02:18:03;;;;;;;25.95;8.13;;;;;;;10.20;82.76;101820.22;5050022;28;20058;-55
2023/05/26 02:20:30;;;;;;;21.55;6.57;;;;;;;10.15;83.23;101814.28;5051922;28;20389;-55
2023/05/26 02:22:57;;;;;;;25.30;6.53;;;;;;;10.11;83.85;101820.56;5049910;28;20063;-56
2023/05/26 02:25:25;;;;;;;21.55;6.43;;;;;;;10.08;83.56;101824.16;5050058;28;20231;-57
2023/05/26 02:27:52;;;;;;;23.52;5.93;;;;;;;10.05;84.00;101821.66;5050829;28;20041;-52
2023/05/26 02:30:19;;;;;;;26.33;7.22;;;;;;;10.02;84.14;101824.41;5048106;28;20055;-53
2023/05/26 02:32:47;;;;;;;23.98;6.32;;;;;;;9.98;83.99;101830.69;5048439;28;20064;-57
2023/05/26 02:35:14;;;;;;;21.98;6.28;;;;;;;9.94;83.94;101829.09;5050888;28;20053;-55
2023/05/26 02:37:42;;;;;;;28.40;7.28;;;;;;;9.92;84.51;101827.44;5050464;28;20051;-56
2023/05/26 02:40:09;;;;;;;25.90;6.65;;;;;;;9.88;84.83;101835.44;5042765;28;20512;-53
2023/05/26 02:42:37;;;;;;;24.35;6.93;;;;;;;9.86;85.33;101831.13;5045802;28;20431;-54
2023/05/26 02:45:05;;;;;;;28.77;7.15;;;;;;;9.84;85.32;101833.84;5050875;28;20147;-54
2023/05/26 02:47:32;;;;;;;25.88;6.80;;;;;;;9.83;85.30;101839.16;5048270;28;20052;-55
2023/05/26 02:49:59;;;;;;;27.15;6.85;;;;;;;9.83;85.89;101839.16;5060007;28;20044;-54
2023/05/26 02:52:27;;;;;;;22.77;7.85;;;;;;;9.84;85.96;101832.97;5063389;28;20132;-55
2023/05/26 02:54:54;;;;;;;27.65;6.97;;;;;;;9.84;86.07;101830.34;5064920;28;20613;-55
2023/05/26 02:57:22;;;;;;;24.40;5.93;;;;;;;9.83;86.34;101833.91;5059018;28;20073;-57
2023/05/26 02:59:49;;;;;;;27.80;7.30;;;;;;;9.83;86.11;101834.75;5064166;28;20526;-56
2023/05/26 03:02:16;;;;;;;26.10;6.35;;;;;;;9.85;86.47;101832.06;5064616;28;20556;-56
2023/05/26 03:04:43;;;;;;;24.10;6.05;;;;;;;9.85;86.21;101834.69;5065335;28;20059;-57
2023/05/26 03:07:11;;;;;;;25.52;6.53;;;;;;;9.86;86.47;101836.41;5065094;28;20547;-57
2023/05/26 03:09:38;;;;;;;26.35;7.20;;;;;;;9.88;86.65;101837.22;5061669;28;20053;-54
2023/05/26 03:12:06;;;;;;;30.55;7.53;;;;;;;9.88;86.55;101837.22;5066979;28;20089;-55
2023/05/26 03:14:34;;;;;;;25.17;6.28;;;;;;;9.88;86.20;101845.09;5069515;28;20774;-53
2023/05/26 03:17:01;;;;;;;24.33;6.47;;;;;;;9.89;86.81;101837.16;5071801;28;20759;-53
2023/05/26 03:19:28;;;;;;;40.70;8.40;;;;;;;9.94;87.02;101841.38;5067009;28;20044;-55
2023/05/26 03:21:56;;;;;;;34.35;7.18;;;;;;;9.99;86.94;101842.06;5072912;28;20056;-56
2023/05/26 03:24:43;;;;;;;26.45;8.10;;;;;;;9.99;86.60;101848.19;5074741;28;20139;-52
2023/05/26 03:27:10;;;;;;;30.77;7.57;;;;;;;9.99;86.57;101848.19;5068849;28;20057;-56
2023/05/26 03:29:37;;;;;;;19.55;6.15;;;;;;;9.98;86.98;101850.88;5068813;28;20058;-57
2023/05/26 03:32:05;;;;;;;34.53;6.97;;;;;;;9.98;87.28;101856.13;5067843;28;20155;-55
2023/05/26 03:34:33;;;;;;;29.08;7.30;;;;;;;9.96;86.56;101845.69;5069104;28;20407;-57
2023/05/26 03:37:00;;;;;;;22.92;6.82;;;;;;;9.96;86.37;101850.94;5070941;28;20052;-56
2023/05/26 03:39:28;;;;;;;26.42;6.70;;;;;;;9.99;86.51;101850.81;5072651;28;20055;-56
2023/05/26 03:41:55;;;;;;;30.10;7.93;;;;;;;10.02;86.39;101855.97;5068576;28;20048;-55
2023/05/26 03:44:23;;;;;;;31.02;7.78;;;;;;;10.05;86.55;101853.25;5074111;28;20059;-56
2023/05/26 03:46:50;;;;;;;30.70;7.38;;;;;;;10.07;86.51;101859.28;5071900;28;20052;-53
2023/05/26 03:49:19;;;;;;;21.27;7.10;;;;;;;10.11;86.50;101857.41;5065973;28;20472;-54
2023/05/26 03:51:47;;;;;;;25.17;7.72;;;;;;;10.15;86.55;101859.00;5072711;28;20086;-53
2023/05/26 03:54:14;;;;;;;24.88;6.25;;;;;;;10.16;86.29;101858.09;5077779;28;20062;-52
2023/05/26 03:56:41;;;;;;;26.70;7.90;;;;;;;10.18;86.85;101868.53;5074009;28;20052;-53
2023/05/26 03:59:08;;;;;;;32.70;7.85;;;;;;;10.19;86.28;101860.63;5073738;28;20548;-51
2023/05/26 04:01:37;;;;;;;30.85;7.10;;;;;;;10.23;85.81;101874.53;5060894;28;20077;-53
2023/05/26 04:04:04;;;;;;;26.77;7.40;;;;;;;10.25;86.12;101873.56;5054347;28;20059;-52
2023/05/26 04:06:31;;;;;;;28.13;8.25;;;;;;;10.28;85.86;101875.25;5058027;28;20589;-54
2023/05/26 04:09:00;;;;;;;27.08;7.72;;;;;;;10.32;85.33;101880.31;5069837;28;20044;-56
2023/05/26 04:11:27;;;;;;;23.65;7.15;;;;;;;10.35;85.27;101879.34;5071105;28;20536;-53
2023/05/26 04:13:55;;;;;;;24.10;7.47;;;;;;;10.38;85.02;101889.75;5084513;28;20041;-55
2023/05/26 04:16:22;;;;;;;24.75;7.10;;;;;;;10.39;85.25;101879.16;5069650;28;20063;-55
2023/05/26 04:18:49;;;;;;;25.90;7.00;;;;;;;10.42;84.94;101883.47;5066381;28;20389;-53
2023/05/26 04:21:16;;;;;;;29.17;8.32;;;;;;;10.45;84.72;101886.00;5074103;28;20059;-53
2023/05/26 04:23:47;;;;;;;29.65;7.30;;;;;;;10.47;84.71;101884.13;5071463;28;20139;-53
2023/05/26 04:26:16;;;;;;;29.80;7.40;;;;;;;10.51;84.19;101891.00;5072332;28;20058;-51
2023/05/26 04:28:44;;;;;;;21.90;6.88;;;;;;;10.52;84.44;101887.44;5066064;28;20136;-50
2023/05/26 04:31:16;;;;;;;27.27;6.95;;;;;;;10.55;84.55;101884.72;5069084;28;20055;-52
2023/05/26 04:33:44;;;;;;;31.20;8.35;;;;;;;10.57;84.24;101889.91;5072092;28;20057;-54
2023/05/26 04:36:16;;;;;;;27.25;6.75;;;;;;;10.59;84.16;101891.56;5070846;28;20407;-56
2023/05/26 04:38:47;;;;;;;28.30;7.68;;;;;;;10.63;84.16;101902.84;5066126;28;20546;-55
2023/05/26 04:41:15;;;;;;;26.17;7.15;;;;;;;10.63;83.90;101895.81;5068016;28;20044;-53
2023/05/26 04:43:43;;;;;;;32.22;7.85;;;;;;;10.68;83.99;101894.78;5070522;28;20052;-52
2023/05/26 04:46:11;;;;;;;29.85;7.78;;;;;;;10.71;83.55;101894.63;5069037;28;20061;-51
2023/05/26 04:48:56;;;;;;;24.48;7.00;;;;;;;10.75;83.56;101899.72;5064957;28;20060;-52
2023/05/26 04:51:26;;;;;;;31.02;7.88;;;;;;;10.81;83.31;101896.00;5068568;28;20041;-50
2023/05/26 04:53:53;;;;;;;28.38;7.28;;;;;;;10.86;83.57;101900.16;5069394;28;20049;-52
2023/05/26 04:56:21;;;;;;;33.58;7.90;;;;;;;10.91;82.90;101900.00;5066005;28;20502;-54
2023/05/26 04:58:48;;;;;;;24.40;6.70;;;;;;;10.98;82.61;101900.59;5067461;28;20535;-52
2023/05/26 05:01:17;;;;;;;31.73;7.72;;;;;;;11.02;82.15;101891.63;5058965;28;20142;-54
2023/05/26 05:03:44;;;;;;;23.42;7.35;;;;;;;11.10;81.78;101889.56;5059760;28;20446;-55
2023/05/26 05:06:12;;;;;;;22.48;6.22;;;;;;;11.16;81.54;101897.19;5064664;28;20048;-51
2023/05/26 05:08:39;;;;;;;32.65;7.97;;;;;;;11.22;81.34;101885.56;5066450;28;20500;-54
2023/05/26 05:11:07;;;;;;;24.95;6.97;;;;;;;11.29;80.84;101903.69;5062396;28;20066;-55
2023/05/26 05:13:34;;;;;;;27.55;6.80;;;;;;;11.36;80.69;101899.88;5067359;28;20048;-56
2023/05/26 05:16:01;;;;;;;30.27;6.82;;;;;;;11.44;80.27;101896.03;5086739;28;20052;-51
2023/05/26 05:18:29;;;;;;;24.70;6.20;;;;;;;11.51;80.58;101892.25;5064900;28;20068;-53
2023/05/26 05:20:56;;;;;;;30.00;6.57;;;;;;;11.57;80.49;101906.03;5074654;28;20041;-54
2023/05/26 05:23:23;;;;;;;27.90;7.35;;;;;;;11.64;79.86;101904.84;5070166;28;20105;-55
2023/05/26 05:25:52;;;;;;;24.48;7.05;;;;;;;11.68;79.64;101902.94;5073443;28;20039;-53
2023/05/26 05:28:19;;;;;;;32.92;7.60;;;;;;;11.76;79.09;101902.59;5085356;28;20431;-54
2023/05/26 05:30:47;;;;;;;33.10;7.95;;;;;;;11.88;79.23;101902.94;5066369;28;20644;-54
2023/05/26 05:33:14;;;;;;;24.67;6.45;;;;;;;11.95;78.80;101900.91;5070375;28;20040;-54
2023/05/26 05:35:42;;;;;;;26.25;7.18;;;;;;;12.03;78.48;101903.22;5067047;28;20171;-50
2023/05/26 05:38:09;;;;;;;25.38;6.90;;;;;;;12.09;77.93;101903.78;5070829;28;20135;-49
2023/05/26 05:40:36;;;;;;;25.77;6.95;;;;;;;12.20;77.55;101910.34;5077493;28;20176;-51
2023/05/26 05:43:04;;;;;;;21.88;6.95;;;;;;;12.30;77.46;101915.16;5070541;28;20414;-50
2023/05/26 05:45:31;;;;;;;25.55;7.18;;;;;;;12.39;76.78;101919.16;5070672;28;20066;-53
2023/05/26 05:47:58;;;;;;;49.38;9.60;;;;;;;12.46;75.67;101917.94;5072734;28;20156;-56
2023/05/26 05:50:26;;;;;;;51.83;9.98;;;;;;;12.54;76.03;101921.09;5068096;28;20426;-50
2023/05/26 05:52:53;;;;;;;36.95;7.97;;;;;;;12.59;75.35;101919.09;5071866;28;20056;-54
2023/05/26 05:55:20;;;;;;;39.35;7.63;;;;;;;12.61;75.53;101916.41;5083257;28;20617;-53
2023/05/26 05:57:48;;;;;;;30.88;7.72;;;;;;;12.64;75.43;101922.38;5073472;28;20117;-53
2023/05/26 06:00:16;;;;;;;43.38;8.95;;;;;;;12.68;74.88;101925.72;5069646;28;20058;-53
2023/05/26 06:02:43;;;;;;;29.20;8.07;;;;;;;12.75;75.32;101934.25;5066024;28;20060;-55
2023/05/26 06:05:10;;;;;;;35.45;9.05;;;;;;;12.85;75.13;101932.88;5073595;28;20060;-52
2023/05/26 06:07:40;;;;;;;29.10;7.60;;;;;;;12.90;74.27;101931.72;5066364;28;20045;-53
2023/05/26 06:10:08;;;;;;;31.73;7.15;;;;;;;13.04;74.43;101925.75;5064524;28;20054;-51
2023/05/26 06:12:35;;;;;;;25.95;6.43;;;;;;;13.17;74.03;101928.66;5073971;28;20431;-54
2023/05/26 06:15:02;;;;;;;31.52;7.57;;;;;;;13.28;73.39;101931.66;5071741;28;20135;-49
2023/05/26 06:17:30;;;;;;;52.08;9.05;;;;;;;13.39;73.03;101936.44;5074926;28;20052;-54
2023/05/26 06:19:57;;;;;;;37.67;7.47;;;;;;;13.55;72.99;101940.00;5072937;28;20045;-54
2023/05/26 06:22:25;;;;;;;40.05;6.72;;;;;;;13.71;72.15;101936.59;5073661;28;20047;-54
2023/05/26 06:24:52;;;;;;;27.25;7.10;;;;;;;13.80;71.84;101936.97;5072055;28;20052;-54
2023/05/26 06:27:19;;;;;;;28.08;6.95;;;;;;;13.90;71.53;101934.69;5075179;28;20052;-51
2023/05/26 06:29:46;;;;;;;34.60;7.78;;;;;;;13.92;70.16;101946.09;5071529;28;20487;-54
2023/05/26 06:32:13;;;;;;;25.52;6.15;;;;;;;14.04;69.98;101939.28;5070417;28;20064;-54
2023/05/26 06:34:41;;;;;;;25.75;7.15;;;;;;;14.14;69.26;101941.38;5072961;28;20060;-54
2023/05/26 06:37:08;;;;;;;21.38;6.68;;;;;;;14.17;68.76;101935.03;5073036;28;20612;-52
2023/05/26 06:39:35;;;;;;;26.08;7.03;;;;;;;14.22;68.23;101940.09;5067074;28;20400;-52
2023/05/26 06:42:02;;;;;;;29.15;8.30;;;;;;;14.28;67.62;101940.66;5072615;28;20646;-56
2023/05/26 06:44:30;;;;;;;34.65;7.00;;;;;;;14.33;67.55;101943.91;5075795;28;20127;-54
2023/05/26 06:46:57;;;;;;;29.65;6.60;;;;;;;14.42;66.57;101931.94;5068281;28;20139;-51
2023/05/26 06:49:24;;;;;;;40.72;8.02;;;;;;;14.49;65.92;101933.34;5077883;28;20066;-53
2023/05/26 06:51:51;;;;;;;25.83;6.32;;;;;;;14.60;66.02;101941.56;5069983;28;20449;-55
2023/05/26 06:54:18;;;;;;;19.20;5.05;;;;;;;14.68;65.39;101939.38;5075766;28;20040;-52
2023/05/26 06:56:46;;;;;;;33.30;7.07;;;;;;;14.77;64.80;101932.69;5068819;28;20058;-52
2023/05/26 06:59:13;;;;;;;28.02;7.50;;;;;;;14.81;63.96;101933.38;5073030;28;20063;-54
2023/05/26 07:01:40;;;;;;;31.88;6.75;;;;;;;14.86;63.79;101933.97;5066088;28;20055;-53
2023/05/26 07:04:07;;;;;;;24.02;5.82;;;;;;;14.92;63.71;101936.28;5071623;28;20589;-51
2023/05/26 07:06:35;;;;;;;29.58;6.32;;;;;;;15.06;63.62;101940.81;5068444;28;20408;-51
2023/05/26 07:09:13;;;;;;;26.20;6.65;;;;;;;15.11;63.01;101934.28;5067241;28;20056;-53
2023/05/26 07:11:40;;;;;;;29.65;7.50;;;;;;;15.20;62.60;101939.06;5069133;28;20049;-56
2023/05/26 07:14:08;;;;;;;30.20;6.72;;;;;;;15.34;61.96;101945.38;5075462;28;20101;-53
2023/05/26 07:16:35;;;;;;;19.40;5.72;;;;;;;15.39;61.48;101945.97;5075509;28;20048;-56
2023/05/26 07:19:02;;;;;;;23.05;5.70;;;;;;;15.53;61.14;101942.50;5073308;28;20809;-52
2023/05/26 07:21:31;;;;;;;20.73;6.78;;;;;;;15.63;60.98;101944.53;5075312;28;20044;-52
2023/05/26 07:23:58;;;;;;;26.95;6.85;;;;;;;15.67;60.42;101942.59;5072717;28;20086;-53
2023/05/26 07:26:25;;;;;;;22.33;5.63;;;;;;;15.65;59.01;101942.66;5072812;28;20552;-53
2023/05/26 07:28:52;;;;;;;25.65;6.65;;;;;;;15.68;58.48;101947.81;5075663;28;20044;-51
2023/05/26 07:31:21;;;;;;;29.38;6.30;;;;;;;15.69;57.97;101944.19;5075341;28;20123;-55
2023/05/26 07:33:50;;;;;;;29.52;6.43;;;;;;;15.76;57.26;101950.00;5064984;28;20052;-50
2023/05/26 07:36:17;;;;;;;28.52;5.97;;;;;;;15.81;57.43;101953.25;5065454;28;20064;-52
2023/05/26 07:38:44;;;;;;;29.50;5.93;;;;;;;15.96;57.55;101951.47;5068732;28;20044;-52
2023/05/26 07:41:11;;;;;;;33.55;5.97;;;;;;;16.10;57.21;101955.94;5070393;28;20074;-55
2023/05/26 07:43:39;;;;;;;30.17;6.55;;;;;;;16.24;56.91;101955.94;5074885;28;20056;-54
2023/05/26 07:46:06;;;;;;;19.48;5.35;;;;;;;16.42;57.07;101951.28;5071624;28;20671;-53
2023/05/26 07:48:33;;;;;;;29.83;6.05;;;;;;;16.59;56.87;101956.41;5066869;28;20131;-54
2023/05/26 07:51:00;;;;;;;26.77;5.90;;;;;;;16.74;55.88;101965.25;5072746;28;20163;-53
2023/05/26 07:53:28;;;;;;;19.27;5.03;;;;;;;16.65;53.98;101966.63;5069989;28;20397;-52
2023/05/26 07:55:55;;;;;;;25.83;5.63;;;;;;;16.63;54.71;101965.03;5065842;28;20198;-55
2023/05/26 07:58:22;;;;;;;28.92;5.32;;;;;;;16.67;54.31;101964.75;5070191;28;20049;-49
2023/05/26 08:00:49;;;;;;;24.98;5.90;;;;;;;16.66;54.47;101968.38;5073755;28;20052;-53
2023/05/26 08:03:16;;;;;;;16.40;4.85;;;;;;;16.80;54.43;101967.53;5077329;28;20094;-55
2023/05/26 08:05:44;;;;;;;26.42;6.32;;;;;;;16.84;52.41;101966.38;5074276;28;20083;-55
2023/05/26 08:08:11;;;;;;;21.17;5.65;;;;;;;16.53;52.79;101972.75;5073743;28;20056;-53
2023/05/26 08:10:39;;;;;;;22.42;4.93;;;;;;;16.54;53.13;101965.63;5076017;28;20144;-53
2023/05/26 08:13:06;;;;;;;23.48;5.57;;;;;;;16.62;53.17;101960.69;5078384;28;20051;-52
2023/05/26 08:15:34;;;;;;;25.08;5.68;;;;;;;16.76;52.98;101966.00;5072964;28;20488;-51
2023/05/26 08:18:01;;;;;;;21.63;5.55;;;;;;;16.99;53.23;101964.53;5073522;28;20592;-52
2023/05/26 08:20:29;;;;;;;28.17;6.65;;;;;;;17.18;52.73;101953.53;5071023;28;20058;-53
2023/05/26 08:22:58;;;;;;;27.63;6.93;;;;;;;17.15;51.96;101951.91;5075836;28;20048;-54
2023/05/26 08:25:26;;;;;;;24.65;5.95;;;;;;;17.22;52.57;101955.06;5077566;28;20056;-50
2023/05/26 08:27:53;;;;;;;18.70;4.70;;;;;;;17.35;51.75;101961.28;5068968;28;20054;-53
2023/05/26 08:30:20;;;;;;;21.15;5.18;;;;;;;17.24;48.44;101957.59;5074710;28;20062;-49
2023/05/26 08:32:47;;;;;;;18.73;4.97;;;;;;;17.16;49.13;101966.09;5069731;28;20165;-54
2023/05/26 08:35:15;;;;;;;17.35;5.15;;;;;;;17.24;48.47;101953.13;5071417;28;20044;-51
2023/05/26 08:37:42;;;;;;;23.80;4.88;;;;;;;17.38;48.08;101955.75;5072293;28;20052;-54
2023/05/26 08:40:11;;;;;;;20.33;4.63;;;;;;;17.48;48.42;101949.81;5067368;28;20625;-52
2023/05/26 08:42:44;;;;;;;21.30;5.32;;;;;;;17.58;48.38;101948.25;5069055;28;20074;-56
2023/05/26 08:45:12;;;;;;;24.60;4.90;;;;;;;17.77;48.45;101954.03;5073528;28;20052;-53
2023/05/26 08:47:42;;;;;;;20.60;4.68;;;;;;;17.92;47.87;101945.03;5085885;28;20056;-54
2023/05/26 08:50:11;;;;;;;20.75;4.93;;;;;;;18.02;48.17;101952.38;5076294;28;20134;-53
2023/05/26 08:52:38;;;;;;;23.67;4.93;;;;;;;18.12;47.64;101956.94;5078389;28;20052;-49
2023/05/26 08:55:17;;;;;;;27.67;5.82;;;;;;;18.22;47.02;101966.00;5072639;28;20051;-52
2023/05/26 08:57:44;;;;;;;24.92;5.15;;;;;;;18.02;47.19;101961.22;5072068;28;20047;-49
2023/05/26 09:00:12;;;;;;;21.08;5.60;;;;;;;18.12;47.90;101959.63;5076201;28;20075;-51
2023/05/26 09:02:40;;;;;;;26.65;5.80;;;;;;;18.31;47.37;101950.31;5068108;28;20033;-51
2023/05/26 09:05:08;;;;;;;22.80;5.07;;;;;;;18.51;47.58;101952.44;5075337;28;20140;-54
2023/05/26 09:07:35;;;;;;;20.75;5.57;;;;;;;18.42;46.16;101950.44;5078097;28;20760;-53
2023/05/26 09:10:21;;;;;;;21.40;4.55;;;;;;;18.54;46.63;101954.03;5071753;28;20159;-51
2023/05/26 09:12:48;;;;;;;23.40;5.25;;;;;;;18.51;45.29;101938.22;5073919;28;20051;-50
2023/05/26 09:15:20;;;;;;;17.15;4.97;;;;;;;18.38;46.33;101951.63;5074536;28;20040;-53
2023/05/26 09:17:48;;;;;;;15.85;4.72;;;;;;;18.49;45.39;101941.03;5069899;28;20108;-53
2023/05/26 09:20:15;;;;;;;20.88;5.88;;;;;;;18.45;44.53;101948.38;5075804;28;20054;-53
2023/05/26 09:22:44;;;;;;;19.38;4.80;;;;;;;18.34;44.77;101948.31;5073692;28;20063;-55
2023/05/26 09:25:11;;;;;;;18.90;5.40;;;;;;;18.38;44.58;101943.63;5080083;28;20093;-51
2023/05/26 09:27:38;;;;;;;17.25;5.03;;;;;;;18.45;44.62;101948.38;5076543;28;20048;-51
2023/05/26 09:30:06;;;;;;;15.85;4.22;;;;;;;18.45;44.55;101952.88;5078471;28;20063;-53
2023/05/26 09:32:34;;;;;;;14.55;4.07;;;;;;;18.54;45.72;101944.22;5075480;28;20056;-50
2023/05/26 09:35:03;;;;;;;20.60;4.78;;;;;;;18.71;45.34;101949.22;5075881;28;20064;-54
2023/05/26 09:37:32;;;;;;;21.77;4.63;;;;;;;18.56;42.52;101944.13;5073373;28;20048;-49
2023/05/26 09:40:14;;;;;;;16.58;3.90;;;;;;;18.53;43.08;101947.00;5071473;28;20089;-53
2023/05/26 09:42:51;;;;;;;18.77;4.22;;;;;;;18.57;42.42;101946.66;5071606;28;20052;-54
2023/05/26 09:45:19;;;;;;;17.83;4.75;;;;;;;18.61;42.56;101956.16;5072504;28;20066;-55
2023/05/26 09:47:55;;;;;;;24.05;4.50;;;;;;;18.56;42.25;101946.78;5065994;28;20620;-52
2023/05/26 09:50:24;;;;;;;17.17;4.38;;;;;;;18.67;41.68;101937.03;5066496;28;20136;-52
2023/05/26 09:52:51;;;;;;;19.45;4.47;;;;;;;18.76;40.97;101940.03;5067466;28;20066;-49
2023/05/26 09:55:18;;;;;;;16.08;4.57;;;;;;;18.62;41.70;101933.84;5065893;28;20135;-53
2023/05/26 09:57:46;;;;;;;24.65;5.30;;;;;;;18.65;42.22;101938.13;5073034;28;20067;-52
2023/05/26 10:00:16;;;;;;;19.90;4.88;;;;;;;18.85;41.63;101942.03;5070226;28;20480;-52
2023/05/26 10:02:45;;;;;;;16.75;4.22;;;;;;;18.99;41.48;101936.53;5071929;28;20084;-53
2023/05/26 10:05:13;;;;;;;22.42;4.55;;;;;;;19.12;40.78;101937.34;5069385;28;20052;-52
2023/05/26 10:07:42;;;;;;;14.57;4.55;;;;;;;19.06;40.30;101937.78;5075459;28;20473;-52
2023/05/26 10:10:13;;;;;;;15.50;4.15;;;;;;;19.09;39.75;101942.91;5068974;28;20050;-49
2023/05/26 10:12:42;;;;;;;15.48;4.50;;;;;;;19.10;39.59;101935.75;5067073;28;20052;-52
2023/05/26 10:15:09;;;;;;;14.50;4.35;;;;;;;19.28;40.21;101929.03;5074437;28;20061;-50
2023/05/26 10:17:38;;;;;;;14.15;4.45;;;;;;;19.53;39.36;101924.50;5070918;28;20056;-49
2023/05/26 10:20:08;;;;;;;17.30;4.50;;;;;;;19.57;39.29;101932.16;5066876;28;20064;-51
2023/05/26 10:22:50;;;;;;;16.38;4.65;;;;;;;19.47;39.07;101929.34;5067887;28;20509;-52
2023/05/26 10:25:26;;;;;;;11.70;4.25;;;;;;;19.49;39.80;101918.53;5071235;28;20055;-53
2023/05/26 10:27:59;;;;;;;11.85;3.40;;;;;;;19.71;41.08;101929.31;5068451;28;20063;-51
2023/05/26 10:30:26;;;;;;;13.18;4.35;;;;;;;20.07;40.68;101930.09;5069345;28;20175;-54
2023/05/26 10:33:08;;;;;;;14.07;4.20;;;;;;;20.40;40.16;101923.94;5070971;28;20044;-52
2023/05/26 10:35:35;;;;;;;13.77;4.35;;;;;;;20.55;38.43;101929.06;5067653;28;20603;-53
2023/05/26 10:38:02;;;;;;;13.25;4.03;;;;;;;20.38;38.69;101933.03;5069907;28;20159;-53
2023/05/26 10:40:30;;;;;;;17.83;5.35;;;;;;;20.37;38.01;101931.34;5073601;28;20060;-53
2023/05/26 10:43:02;;;;;;;18.45;4.93;;;;;;;20.41;38.01;101928.31;5064340;28;20053;-55
2023/05/26 10:45:31;;;;;;;13.63;3.70;;;;;;;20.56;37.22;101936.94;5065023;28;20143;-53
2023/05/26 10:48:11;;;;;;;17.50;4.18;;;;;;;20.65;37.20;101930.84;5064638;28;20056;-51
2023/05/26 10:50:58;;;;;;;17.02;3.63;;;;;;;20.95;37.23;101924.84;5074294;28;20056;-54
2023/05/26 10:53:30;;;;;;;10.77;3.65;;;;;;;21.12;37.41;101922.56;5068127;28;20135;-57
2023/05/26 10:55:59;;;;;;;15.02;4.47;;;;;;;21.17;35.71;101931.94;5068953;28;20057;-55
2023/05/26 10:58:33;;;;;;;13.52;4.18;;;;;;;21.24;36.23;101933.13;5068341;28;20649;-54
2023/05/26 11:01:03;;;;;;;17.50;4.47;;;;;;;21.29;34.72;101929.22;5074408;28;20144;-53
2023/05/26 11:03:41;;;;;;;14.90;4.28;;;;;;;21.10;34.57;101928.06;5068023;28;20091;-53
2023/05/26 11:06:14;;;;;;;13.25;3.85;;;;;;;20.93;35.20;101924.09;5068030;28;20060;-52
2023/05/26 11:08:45;;;;;;;16.20;4.20;;;;;;;21.10;35.99;101935.25;5073055;28;20135;-49
2023/05/26 11:11:17;;;;;;;16.35;4.35;;;;;;;20.88;36.22;101925.47;5072725;28;20048;-55
2023/05/26 11:13:46;;;;;;;18.20;4.05;;;;;;;20.91;35.90;101919.88;5082165;28;20080;-53
2023/05/26 11:16:17;;;;;;;15.75;3.67;;;;;;;21.18;36.53;101920.25;5065742;28;20054;-58
2023/05/26 11:18:52;;;;;;;12.73;4.35;;;;;;;21.35;36.06;101928.75;5066250;28;20044;-56
2023/05/26 11:21:27;;;;;;;14.18;4.05;;;;;;;21.55;33.54;101924.38;5067616;28;20504;-53
2023/05/26 11:23:56;;;;;;;13.00;3.78;;;;;;;21.57;33.02;101925.97;5069326;28;20048;-54